Nokomis, Florida
Current Conditions -  °F | °C
As of 9:35 AM on Friday 28 Nov 2014 (Local Time) from KVNC Reporting Station
Clear Clear  
Wind Chill: 50°   Ceiling: Unl
Heat Index: 50°   Visibility: 10mi
Dew Point: 36°   Wind: 13mph
Humidity: 58%   Direction: 30°NNE
Pressure: 30.35"   Gusts: 18mph
Location:  27.12°N, 82.44°W
Report Text: KVNC 281435Z AUTO 03011G16KT 10SM CLR 10/02 A3035 RMK AO2 TSNO
Loading
Personal Weather Stations






























Interactive Weather Map New forecast layout! Learn more

10-Day Weather Forecast

Advertisements
Track Severe Weather on mobile